sensor_id;sensor_type;location;lat;lon;timestamp;P1;durP1;ratioP1;P2;durP2;ratioP2
2850;SDS011;1433;49.976;8.342;2022-11-20T00:01:12;0.90;;;0.80;;
2850;SDS011;1433;49.976;8.342;2022-11-20T00:03:41;0.90;;;0.80;;
2850;SDS011;1433;49.976;8.342;2022-11-20T00:06:09;1.67;;;1.57;;
2850;SDS011;1433;49.976;8.342;2022-11-20T00:08:37;1.00;;;0.90;;
2850;SDS011;1433;49.976;8.342;2022-11-20T00:11:07;1.10;;;1.00;;
2850;SDS011;1433;49.976;8.342;2022-11-20T00:13:35;0.90;;;0.70;;
2850;SDS011;1433;49.976;8.342;2022-11-20T00:16:03;0.90;;;0.80;;
2850;SDS011;1433;49.976;8.342;2022-11-20T00:18:30;0.90;;;0.77;;
2850;SDS011;1433;49.976;8.342;2022-11-20T00:21:05;0.90;;;0.80;;
2850;SDS011;1433;49.976;8.342;2022-11-20T00:23:33;0.90;;;0.80;;
2850;SDS011;1433;49.976;8.342;2022-11-20T00:26:03;1.00;;;0.90;;
2850;SDS011;1433;49.976;8.342;2022-11-20T00:28:31;0.90;;;0.80;;
2850;SDS011;1433;49.976;8.342;2022-11-20T00:31:05;1.40;;;1.30;;
2850;SDS011;1433;49.976;8.342;2022-11-20T00:33:29;0.90;;;0.70;;
2850;SDS011;1433;49.976;8.342;2022-11-20T00:36:00;0.90;;;0.70;;
2850;SDS011;1433;49.976;8.342;2022-11-20T00:38:31;0.90;;;0.80;;
2850;SDS011;1433;49.976;8.342;2022-11-20T00:40:58;0.90;;;0.80;;
2850;SDS011;1433;49.976;8.342;2022-11-20T00:43:25;0.90;;;0.77;;
2850;SDS011;1433;49.976;8.342;2022-11-20T00:45:58;0.90;;;0.80;;
2850;SDS011;1433;49.976;8.342;2022-11-20T00:48:25;0.90;;;0.80;;
2850;SDS011;1433;49.976;8.342;2022-11-20T00:50:52;0.90;;;0.70;;
2850;SDS011;1433;49.976;8.342;2022-11-20T00:53:19;1.10;;;1.00;;
2850;SDS011;1433;49.976;8.342;2022-11-20T00:55:53;1.07;;;0.97;;
2850;SDS011;1433;49.976;8.342;2022-11-20T00:58:22;1.20;;;1.10;;
2850;SDS011;1433;49.976;8.342;2022-11-20T01:00:50;1.00;;;0.90;;
2850;SDS011;1433;49.976;8.342;2022-11-20T01:03:17;1.00;;;0.90;;
2850;SDS011;1433;49.976;8.342;2022-11-20T01:05:43;0.90;;;0.80;;
2850;SDS011;1433;49.976;8.342;2022-11-20T01:08:10;1.10;;;1.00;;
2850;SDS011;1433;49.976;8.342;2022-11-20T01:10:36;1.30;;;1.10;;
2850;SDS011;1433;49.976;8.342;2022-11-20T01:13:02;1.37;;;1.27;;
2850;SDS011;1433;49.976;8.342;2022-11-20T01:15:47;0.90;;;0.70;;
2850;SDS011;1433;49.976;8.342;2022-11-20T01:18:13;1.10;;;1.00;;
2850;SDS011;1433;49.976;8.342;2022-11-20T01:20:39;1.00;;;0.90;;
2850;SDS011;1433;49.976;8.342;2022-11-20T01:23:05;0.90;;;0.70;;
2850;SDS011;1433;49.976;8.342;2022-11-20T01:25:31;0.90;;;0.77;;
2850;SDS011;1433;49.976;8.342;2022-11-20T01:27:57;0.90;;;0.80;;
2850;SDS011;1433;49.976;8.342;2022-11-20T01:30:23;1.73;;;1.63;;
2850;SDS011;1433;49.976;8.342;2022-11-20T01:32:49;1.10;;;1.00;;
2850;SDS011;1433;49.976;8.342;2022-11-20T01:35:15;0.90;;;0.73;;
2850;SDS011;1433;49.976;8.342;2022-11-20T01:37:41;1.10;;;1.00;;
2850;SDS011;1433;49.976;8.342;2022-11-20T01:40:08;0.90;;;0.77;;
2850;SDS011;1433;49.976;8.342;2022-11-20T01:42:34;0.90;;;0.80;;
2850;SDS011;1433;49.976;8.342;2022-11-20T01:48:26;0.90;;;0.70;;
2850;SDS011;1433;49.976;8.342;2022-11-20T01:50:55;0.90;;;0.70;;
2850;SDS011;1433;49.976;8.342;2022-11-20T01:53:24;0.90;;;0.80;;
2850;SDS011;1433;49.976;8.342;2022-11-20T01:55:53;0.90;;;0.80;;
2850;SDS011;1433;49.976;8.342;2022-11-20T01:58:23;0.90;;;0.70;;
2850;SDS011;1433;49.976;8.342;2022-11-20T02:00:52;0.90;;;0.70;;
2850;SDS011;1433;49.976;8.342;2022-11-20T02:03:19;0.90;;;0.80;;
2850;SDS011;1433;49.976;8.342;2022-11-20T02:05:47;1.20;;;1.10;;
2850;SDS011;1433;49.976;8.342;2022-11-20T02:08:18;0.90;;;0.80;;
2850;SDS011;1433;49.976;8.342;2022-11-20T02:10:45;1.27;;;1.17;;
2850;SDS011;1433;49.976;8.342;2022-11-20T02:13:11;1.03;;;0.93;;
2850;SDS011;1433;49.976;8.342;2022-11-20T02:15:56;1.77;;;1.67;;
2850;SDS011;1433;49.976;8.342;2022-11-20T02:18:22;1.67;;;1.00;;
2850;SDS011;1433;49.976;8.342;2022-11-20T02:20:59;1.77;;;1.67;;
2850;SDS011;1433;49.976;8.342;2022-11-20T02:23:28;1.00;;;0.90;;
2850;SDS011;1433;49.976;8.342;2022-11-20T02:25:55;0.90;;;0.80;;
2850;SDS011;1433;49.976;8.342;2022-11-20T02:28:23;0.90;;;0.80;;
2850;SDS011;1433;49.976;8.342;2022-11-20T02:30:50;0.90;;;0.80;;
2850;SDS011;1433;49.976;8.342;2022-11-20T02:33:18;1.50;;;1.40;;
2850;SDS011;1433;49.976;8.342;2022-11-20T02:35:45;3.53;;;1.47;;
2850;SDS011;1433;49.976;8.342;2022-11-20T02:38:12;0.90;;;0.80;;
2850;SDS011;1433;49.976;8.342;2022-11-20T02:40:39;0.90;;;0.80;;
2850;SDS011;1433;49.976;8.342;2022-11-20T02:43:05;0.90;;;0.70;;
2850;SDS011;1433;49.976;8.342;2022-11-20T02:45:32;0.90;;;0.80;;
2850;SDS011;1433;49.976;8.342;2022-11-20T02:47:58;0.90;;;0.77;;
2850;SDS011;1433;49.976;8.342;2022-11-20T02:50:24;1.43;;;1.00;;
2850;SDS011;1433;49.976;8.342;2022-11-20T02:52:50;0.90;;;0.70;;
2850;SDS011;1433;49.976;8.342;2022-11-20T02:55:17;1.50;;;1.40;;
2850;SDS011;1433;49.976;8.342;2022-11-20T02:57:43;0.90;;;0.80;;
2850;SDS011;1433;49.976;8.342;2022-11-20T03:00:09;0.90;;;0.73;;
2850;SDS011;1433;49.976;8.342;2022-11-20T03:02:36;0.90;;;0.70;;
2850;SDS011;1433;49.976;8.342;2022-11-20T03:05:02;0.90;;;0.70;;
2850;SDS011;1433;49.976;8.342;2022-11-20T03:07:29;0.90;;;0.80;;
2850;SDS011;1433;49.976;8.342;2022-11-20T03:09:55;0.90;;;0.80;;
2850;SDS011;1433;49.976;8.342;2022-11-20T03:12:21;1.40;;;1.03;;
2850;SDS011;1433;49.976;8.342;2022-11-20T03:14:47;1.00;;;0.90;;
2850;SDS011;1433;49.976;8.342;2022-11-20T03:17:13;0.90;;;0.70;;
2850;SDS011;1433;49.976;8.342;2022-11-20T03:19:39;0.90;;;0.70;;
2850;SDS011;1433;49.976;8.342;2022-11-20T03:22:05;0.90;;;0.80;;
2850;SDS011;1433;49.976;8.342;2022-11-20T03:24:31;1.20;;;0.90;;
2850;SDS011;1433;49.976;8.342;2022-11-20T03:26:57;0.90;;;0.70;;
2850;SDS011;1433;49.976;8.342;2022-11-20T03:29:23;0.90;;;0.80;;
2850;SDS011;1433;49.976;8.342;2022-11-20T03:31:50;0.90;;;0.70;;
2850;SDS011;1433;49.976;8.342;2022-11-20T03:34:16;0.90;;;0.70;;
2850;SDS011;1433;49.976;8.342;2022-11-20T03:36:42;0.90;;;0.70;;
2850;SDS011;1433;49.976;8.342;2022-11-20T03:39:08;0.90;;;0.70;;
2850;SDS011;1433;49.976;8.342;2022-11-20T03:41:36;1.20;;;1.10;;
2850;SDS011;1433;49.976;8.342;2022-11-20T03:44:04;0.90;;;0.80;;
2850;SDS011;1433;49.976;8.342;2022-11-20T03:46:32;0.90;;;0.80;;
2850;SDS011;1433;49.976;8.342;2022-11-20T03:48:58;0.90;;;0.80;;
2850;SDS011;1433;49.976;8.342;2022-11-20T03:51:29;2.07;;;0.80;;
2850;SDS011;1433;49.976;8.342;2022-11-20T03:53:58;0.90;;;0.80;;
2850;SDS011;1433;49.976;8.342;2022-11-20T03:56:27;0.90;;;0.80;;
2850;SDS011;1433;49.976;8.342;2022-11-20T03:58:55;0.90;;;0.73;;
2850;SDS011;1433;49.976;8.342;2022-11-20T04:01:23;1.17;;;1.03;;
2850;SDS011;1433;49.976;8.342;2022-11-20T04:03:51;0.90;;;0.70;;
2850;SDS011;1433;49.976;8.342;2022-11-20T04:06:20;0.90;;;0.70;;
2850;SDS011;1433;49.976;8.342;2022-11-20T04:08:47;0.90;;;0.70;;
2850;SDS011;1433;49.976;8.342;2022-11-20T04:11:16;1.00;;;0.80;;
2850;SDS011;1433;49.976;8.342;2022-11-20T04:13:51;0.90;;;0.80;;
2850;SDS011;1433;49.976;8.342;2022-11-20T04:16:16;0.90;;;0.70;;
2850;SDS011;1433;49.976;8.342;2022-11-20T04:18:43;1.20;;;1.10;;
2850;SDS011;1433;49.976;8.342;2022-11-20T04:21:09;1.20;;;1.10;;
2850;SDS011;1433;49.976;8.342;2022-11-20T04:23:37;0.90;;;0.80;;
2850;SDS011;1433;49.976;8.342;2022-11-20T04:26:05;2.13;;;1.10;;
2850;SDS011;1433;49.976;8.342;2022-11-20T04:28:35;0.90;;;0.77;;
2850;SDS011;1433;49.976;8.342;2022-11-20T04:31:11;0.90;;;0.80;;
2850;SDS011;1433;49.976;8.342;2022-11-20T04:33:40;1.00;;;0.90;;
2850;SDS011;1433;49.976;8.342;2022-11-20T04:36:13;0.90;;;0.70;;
2850;SDS011;1433;49.976;8.342;2022-11-20T04:38:41;1.23;;;1.10;;
2850;SDS011;1433;49.976;8.342;2022-11-20T04:41:09;1.40;;;1.30;;
2850;SDS011;1433;49.976;8.342;2022-11-20T04:43:46;0.90;;;0.70;;
2850;SDS011;1433;49.976;8.342;2022-11-20T04:46:19;0.90;;;0.80;;
2850;SDS011;1433;49.976;8.342;2022-11-20T04:48:46;0.90;;;0.70;;
2850;SDS011;1433;49.976;8.342;2022-11-20T04:51:13;1.20;;;1.10;;
2850;SDS011;1433;49.976;8.342;2022-11-20T04:53:39;0.90;;;0.73;;
2850;SDS011;1433;49.976;8.342;2022-11-20T04:56:06;0.90;;;0.80;;
2850;SDS011;1433;49.976;8.342;2022-11-20T04:58:34;1.10;;;1.00;;
2850;SDS011;1433;49.976;8.342;2022-11-20T05:01:04;0.90;;;0.80;;
2850;SDS011;1433;49.976;8.342;2022-11-20T05:03:39;1.10;;;1.00;;
2850;SDS011;1433;49.976;8.342;2022-11-20T05:06:07;1.10;;;1.00;;
2850;SDS011;1433;49.976;8.342;2022-11-20T05:08:35;1.10;;;1.00;;
2850;SDS011;1433;49.976;8.342;2022-11-20T05:13:41;1.10;;;1.00;;
2850;SDS011;1433;49.976;8.342;2022-11-20T05:16:12;1.13;;;1.03;;
2850;SDS011;1433;49.976;8.342;2022-11-20T05:18:41;1.00;;;0.90;;
2850;SDS011;1433;49.976;8.342;2022-11-20T05:21:08;1.20;;;1.10;;
2850;SDS011;1433;49.976;8.342;2022-11-20T05:23:36;0.90;;;0.80;;
2850;SDS011;1433;49.976;8.342;2022-11-20T05:26:03;0.90;;;0.80;;
2850;SDS011;1433;49.976;8.342;2022-11-20T05:28:30;0.90;;;0.73;;
2850;SDS011;1433;49.976;8.342;2022-11-20T05:31:04;1.10;;;1.00;;
2850;SDS011;1433;49.976;8.342;2022-11-20T05:33:33;2.43;;;1.30;;
2850;SDS011;1433;49.976;8.342;2022-11-20T05:36:02;0.90;;;0.80;;
2850;SDS011;1433;49.976;8.342;2022-11-20T05:38:29;1.37;;;1.23;;
2850;SDS011;1433;49.976;8.342;2022-11-20T05:41:02;1.70;;;1.57;;
2850;SDS011;1433;49.976;8.342;2022-11-20T05:43:31;1.10;;;0.80;;
2850;SDS011;1433;49.976;8.342;2022-11-20T05:46:00;0.90;;;0.80;;
2850;SDS011;1433;49.976;8.342;2022-11-20T05:48:27;0.90;;;0.80;;
2850;SDS011;1433;49.976;8.342;2022-11-20T05:50:53;0.90;;;0.80;;
2850;SDS011;1433;49.976;8.342;2022-11-20T05:53:19;0.90;;;0.80;;
2850;SDS011;1433;49.976;8.342;2022-11-20T05:55:45;1.30;;;1.20;;
2850;SDS011;1433;49.976;8.342;2022-11-20T05:58:12;1.20;;;1.10;;
2850;SDS011;1433;49.976;8.342;2022-11-20T06:00:38;0.90;;;0.80;;
2850;SDS011;1433;49.976;8.342;2022-11-20T06:03:04;0.90;;;0.80;;
2850;SDS011;1433;49.976;8.342;2022-11-20T06:05:30;0.90;;;0.80;;
2850;SDS011;1433;49.976;8.342;2022-11-20T06:07:56;1.90;;;1.30;;
2850;SDS011;1433;49.976;8.342;2022-11-20T06:10:23;1.43;;;1.10;;
2850;SDS011;1433;49.976;8.342;2022-11-20T06:12:49;1.77;;;1.03;;
2850;SDS011;1433;49.976;8.342;2022-11-20T06:15:15;0.90;;;0.80;;
2850;SDS011;1433;49.976;8.342;2022-11-20T06:17:41;0.90;;;0.80;;
2850;SDS011;1433;49.976;8.342;2022-11-20T06:20:08;0.90;;;0.70;;
2850;SDS011;1433;49.976;8.342;2022-11-20T06:22:35;0.90;;;0.80;;
2850;SDS011;1433;49.976;8.342;2022-11-20T06:25:01;1.10;;;1.00;;
2850;SDS011;1433;49.976;8.342;2022-11-20T06:27:28;0.93;;;0.83;;
2850;SDS011;1433;49.976;8.342;2022-11-20T06:29:54;1.00;;;0.90;;
2850;SDS011;1433;49.976;8.342;2022-11-20T06:32:20;0.90;;;0.73;;
2850;SDS011;1433;49.976;8.342;2022-11-20T06:34:46;0.90;;;0.80;;
2850;SDS011;1433;49.976;8.342;2022-11-20T06:37:13;0.90;;;0.70;;
2850;SDS011;1433;49.976;8.342;2022-11-20T06:39:39;0.90;;;0.80;;
2850;SDS011;1433;49.976;8.342;2022-11-20T06:42:05;0.90;;;0.80;;
2850;SDS011;1433;49.976;8.342;2022-11-20T06:44:31;0.90;;;0.80;;
2850;SDS011;1433;49.976;8.342;2022-11-20T06:46:58;0.90;;;0.80;;
2850;SDS011;1433;49.976;8.342;2022-11-20T06:49:25;0.90;;;0.80;;
2850;SDS011;1433;49.976;8.342;2022-11-20T06:51:53;1.50;;;0.90;;
2850;SDS011;1433;49.976;8.342;2022-11-20T06:54:19;1.90;;;1.80;;
2850;SDS011;1433;49.976;8.342;2022-11-20T06:56:46;1.60;;;1.20;;
2850;SDS011;1433;49.976;8.342;2022-11-20T06:59:13;0.90;;;0.80;;
2850;SDS011;1433;49.976;8.342;2022-11-20T07:01:39;1.10;;;1.00;;
2850;SDS011;1433;49.976;8.342;2022-11-20T07:04:06;1.17;;;1.07;;
2850;SDS011;1433;49.976;8.342;2022-11-20T07:06:32;1.20;;;1.10;;
2850;SDS011;1433;49.976;8.342;2022-11-20T07:08:58;1.00;;;0.90;;
2850;SDS011;1433;49.976;8.342;2022-11-20T07:11:25;1.40;;;1.30;;
2850;SDS011;1433;49.976;8.342;2022-11-20T07:13:51;1.37;;;1.27;;
2850;SDS011;1433;49.976;8.342;2022-11-20T07:16:17;1.00;;;0.90;;
2850;SDS011;1433;49.976;8.342;2022-11-20T07:18:43;1.10;;;1.00;;
2850;SDS011;1433;49.976;8.342;2022-11-20T07:21:10;4.93;;;1.07;;
2850;SDS011;1433;49.976;8.342;2022-11-20T07:23:36;1.00;;;0.90;;
2850;SDS011;1433;49.976;8.342;2022-11-20T07:26:07;1.00;;;0.90;;
2850;SDS011;1433;49.976;8.342;2022-11-20T07:28:36;1.00;;;0.90;;
2850;SDS011;1433;49.976;8.342;2022-11-20T07:31:03;1.30;;;1.20;;
2850;SDS011;1433;49.976;8.342;2022-11-20T07:33:32;1.00;;;0.90;;
2850;SDS011;1433;49.976;8.342;2022-11-20T07:35:58;1.10;;;1.00;;
2850;SDS011;1433;49.976;8.342;2022-11-20T07:38:25;0.90;;;0.80;;
2850;SDS011;1433;49.976;8.342;2022-11-20T07:40:54;1.20;;;1.10;;
2850;SDS011;1433;49.976;8.342;2022-11-20T07:43:23;0.93;;;0.83;;
2850;SDS011;1433;49.976;8.342;2022-11-20T07:45:50;1.00;;;0.90;;
2850;SDS011;1433;49.976;8.342;2022-11-20T07:48:17;1.00;;;0.90;;
2850;SDS011;1433;49.976;8.342;2022-11-20T07:50:43;1.00;;;0.90;;
2850;SDS011;1433;49.976;8.342;2022-11-20T07:53:09;0.90;;;0.80;;
2850;SDS011;1433;49.976;8.342;2022-11-20T07:55:35;0.90;;;0.80;;
2850;SDS011;1433;49.976;8.342;2022-11-20T07:58:03;2.50;;;0.90;;
2850;SDS011;1433;49.976;8.342;2022-11-20T08:00:29;0.90;;;0.80;;
2850;SDS011;1433;49.976;8.342;2022-11-20T08:02:55;0.90;;;0.77;;
2850;SDS011;1433;49.976;8.342;2022-11-20T08:05:22;0.90;;;0.80;;
2850;SDS011;1433;49.976;8.342;2022-11-20T08:07:48;1.40;;;1.30;;
2850;SDS011;1433;49.976;8.342;2022-11-20T08:10:14;1.10;;;0.93;;
2850;SDS011;1433;49.976;8.342;2022-11-20T08:12:45;0.93;;;0.83;;
2850;SDS011;1433;49.976;8.342;2022-11-20T08:15:32;1.20;;;1.10;;
2850;SDS011;1433;49.976;8.342;2022-11-20T08:18:03;1.00;;;0.90;;
2850;SDS011;1433;49.976;8.342;2022-11-20T08:20:33;0.90;;;0.80;;
2850;SDS011;1433;49.976;8.342;2022-11-20T08:23:01;3.43;;;1.10;;
2850;SDS011;1433;49.976;8.342;2022-11-20T08:25:34;1.10;;;1.00;;
2850;SDS011;1433;49.976;8.342;2022-11-20T08:28:02;1.30;;;1.20;;
2850;SDS011;1433;49.976;8.342;2022-11-20T08:30:31;1.50;;;1.40;;
2850;SDS011;1433;49.976;8.342;2022-11-20T08:33:03;1.10;;;1.00;;
2850;SDS011;1433;49.976;8.342;2022-11-20T08:35:32;1.03;;;0.93;;
2850;SDS011;1433;49.976;8.342;2022-11-20T08:38:01;1.20;;;1.10;;
2850;SDS011;1433;49.976;8.342;2022-11-20T08:40:30;1.53;;;1.43;;
2850;SDS011;1433;49.976;8.342;2022-11-20T08:42:59;0.90;;;0.70;;
2850;SDS011;1433;49.976;8.342;2022-11-20T08:45:26;1.00;;;0.90;;
2850;SDS011;1433;49.976;8.342;2022-11-20T08:47:52;3.00;;;1.63;;
2850;SDS011;1433;49.976;8.342;2022-11-20T08:50:19;1.40;;;1.30;;
2850;SDS011;1433;49.976;8.342;2022-11-20T08:52:45;2.13;;;2.03;;
2850;SDS011;1433;49.976;8.342;2022-11-20T08:55:11;1.10;;;1.00;;
2850;SDS011;1433;49.976;8.342;2022-11-20T08:57:37;2.13;;;1.77;;
2850;SDS011;1433;49.976;8.342;2022-11-20T09:00:05;2.03;;;1.30;;
2850;SDS011;1433;49.976;8.342;2022-11-20T09:02:35;0.97;;;0.87;;
2850;SDS011;1433;49.976;8.342;2022-11-20T09:05:01;1.30;;;1.20;;
2850;SDS011;1433;49.976;8.342;2022-11-20T09:07:29;2.60;;;1.10;;
2850;SDS011;1433;49.976;8.342;2022-11-20T09:09:56;0.90;;;0.80;;
2850;SDS011;1433;49.976;8.342;2022-11-20T09:12:22;0.90;;;0.80;;
2850;SDS011;1433;49.976;8.342;2022-11-20T09:14:48;0.90;;;0.80;;
2850;SDS011;1433;49.976;8.342;2022-11-20T09:17:15;1.97;;;0.80;;
2850;SDS011;1433;49.976;8.342;2022-11-20T09:19:42;1.00;;;0.90;;
2850;SDS011;1433;49.976;8.342;2022-11-20T09:22:09;0.90;;;0.80;;
2850;SDS011;1433;49.976;8.342;2022-11-20T09:24:36;1.03;;;0.93;;
2850;SDS011;1433;49.976;8.342;2022-11-20T09:27:04;0.90;;;0.80;;
2850;SDS011;1433;49.976;8.342;2022-11-20T09:29:32;1.47;;;1.37;;
2850;SDS011;1433;49.976;8.342;2022-11-20T09:31:58;3.13;;;2.20;;
2850;SDS011;1433;49.976;8.342;2022-11-20T09:34:25;1.03;;;0.93;;
2850;SDS011;1433;49.976;8.342;2022-11-20T09:36:51;2.50;;;2.20;;
2850;SDS011;1433;49.976;8.342;2022-11-20T09:39:17;0.90;;;0.80;;
2850;SDS011;1433;49.976;8.342;2022-11-20T09:41:51;2.33;;;2.13;;
2850;SDS011;1433;49.976;8.342;2022-11-20T09:47:15;1.00;;;0.90;;
2850;SDS011;1433;49.976;8.342;2022-11-20T09:50:28;1.10;;;1.00;;
2850;SDS011;1433;49.976;8.342;2022-11-20T09:56:13;1.57;;;1.47;;
2850;SDS011;1433;49.976;8.342;2022-11-20T09:58:41;1.20;;;1.10;;
2850;SDS011;1433;49.976;8.342;2022-11-20T10:01:15;1.50;;;1.40;;
2850;SDS011;1433;49.976;8.342;2022-11-20T10:03:56;3.40;;;2.17;;
2850;SDS011;1433;49.976;8.342;2022-11-20T10:06:31;1.43;;;1.33;;
2850;SDS011;1433;49.976;8.342;2022-11-20T10:14:38;3.33;;;2.47;;
2850;SDS011;1433;49.976;8.342;2022-11-20T10:20:28;1.20;;;1.10;;
2850;SDS011;1433;49.976;8.342;2022-11-20T10:31:47;1.43;;;1.33;;
2850;SDS011;1433;49.976;8.342;2022-11-20T10:36:54;1.20;;;1.10;;
2850;SDS011;1433;49.976;8.342;2022-11-20T10:39:25;1.27;;;1.17;;
2850;SDS011;1433;49.976;8.342;2022-11-20T10:42:02;1.10;;;1.00;;
2850;SDS011;1433;49.976;8.342;2022-11-20T10:44:40;1.10;;;1.00;;
2850;SDS011;1433;49.976;8.342;2022-11-20T10:47:30;1.10;;;1.00;;
2850;SDS011;1433;49.976;8.342;2022-11-20T10:49:58;1.00;;;0.90;;
2850;SDS011;1433;49.976;8.342;2022-11-20T10:52:41;1.13;;;1.03;;
2850;SDS011;1433;49.976;8.342;2022-11-20T11:00:46;1.43;;;1.33;;
2850;SDS011;1433;49.976;8.342;2022-11-20T11:03:28;1.57;;;1.47;;
2850;SDS011;1433;49.976;8.342;2022-11-20T11:06:06;1.00;;;0.90;;
2850;SDS011;1433;49.976;8.342;2022-11-20T11:08:38;1.00;;;0.90;;
2850;SDS011;1433;49.976;8.342;2022-11-20T11:11:18;1.20;;;1.10;;
2850;SDS011;1433;49.976;8.342;2022-11-20T11:13:52;1.27;;;1.17;;
2850;SDS011;1433;49.976;8.342;2022-11-20T11:16:26;1.80;;;1.70;;
2850;SDS011;1433;49.976;8.342;2022-11-20T11:19:02;2.17;;;1.40;;
2850;SDS011;1433;49.976;8.342;2022-11-20T11:21:34;1.53;;;1.43;;
2850;SDS011;1433;49.976;8.342;2022-11-20T11:24:03;4.20;;;2.40;;
2850;SDS011;1433;49.976;8.342;2022-11-20T11:26:30;1.37;;;1.27;;
2850;SDS011;1433;49.976;8.342;2022-11-20T11:29:01;1.10;;;1.00;;
2850;SDS011;1433;49.976;8.342;2022-11-20T11:31:28;1.00;;;0.90;;
2850;SDS011;1433;49.976;8.342;2022-11-20T11:34:06;1.00;;;0.90;;
2850;SDS011;1433;49.976;8.342;2022-11-20T11:36:35;2.60;;;1.73;;
2850;SDS011;1433;49.976;8.342;2022-11-20T11:39:02;1.10;;;1.00;;
2850;SDS011;1433;49.976;8.342;2022-11-20T11:41:32;1.10;;;0.80;;
2850;SDS011;1433;49.976;8.342;2022-11-20T11:44:12;1.10;;;1.00;;
2850;SDS011;1433;49.976;8.342;2022-11-20T11:47:08;1.00;;;0.90;;
2850;SDS011;1433;49.976;8.342;2022-11-20T11:55:29;2.40;;;2.20;;
2850;SDS011;1433;49.976;8.342;2022-11-20T12:01:07;18.73;;;16.50;;
2850;SDS011;1433;49.976;8.342;2022-11-20T12:03:43;31.60;;;28.37;;
2850;SDS011;1433;49.976;8.342;2022-11-20T12:06:17;27.87;;;24.87;;
2850;SDS011;1433;49.976;8.342;2022-11-20T12:08:54;24.77;;;22.20;;
2850;SDS011;1433;49.976;8.342;2022-11-20T12:14:37;26.47;;;23.67;;
2850;SDS011;1433;49.976;8.342;2022-11-20T12:17:09;28.63;;;25.37;;
2850;SDS011;1433;49.976;8.342;2022-11-20T12:19:37;22.93;;;20.73;;
2850;SDS011;1433;49.976;8.342;2022-11-20T12:25:10;23.13;;;20.73;;
2850;SDS011;1433;49.976;8.342;2022-11-20T12:39:35;22.37;;;19.87;;
2850;SDS011;1433;49.976;8.342;2022-11-20T12:42:14;20.87;;;18.77;;
2850;SDS011;1433;49.976;8.342;2022-11-20T12:48:02;21.57;;;19.50;;
2850;SDS011;1433;49.976;8.342;2022-11-20T12:50:49;23.27;;;20.77;;
2850;SDS011;1433;49.976;8.342;2022-11-20T12:59:19;18.53;;;16.63;;
2850;SDS011;1433;49.976;8.342;2022-11-20T13:08:25;20.10;;;18.20;;
2850;SDS011;1433;49.976;8.342;2022-11-20T13:14:11;22.80;;;20.50;;
2850;SDS011;1433;49.976;8.342;2022-11-20T13:16:52;20.37;;;18.20;;
2850;SDS011;1433;49.976;8.342;2022-11-20T13:19:29;19.70;;;17.83;;
2850;SDS011;1433;49.976;8.342;2022-11-20T13:21:55;20.13;;;18.07;;
2850;SDS011;1433;49.976;8.342;2022-11-20T13:24:22;22.17;;;19.87;;
2850;SDS011;1433;49.976;8.342;2022-11-20T13:26:59;23.80;;;21.30;;
2850;SDS011;1433;49.976;8.342;2022-11-20T13:29:46;25.40;;;19.33;;
2850;SDS011;1433;49.976;8.342;2022-11-20T13:32:28;23.00;;;20.83;;
2850;SDS011;1433;49.976;8.342;2022-11-20T13:35:02;22.23;;;19.97;;
2850;SDS011;1433;49.976;8.342;2022-11-20T13:37:31;23.07;;;20.57;;
2850;SDS011;1433;49.976;8.342;2022-11-20T13:42:40;21.50;;;19.23;;
2850;SDS011;1433;49.976;8.342;2022-11-20T13:45:32;29.73;;;22.47;;
2850;SDS011;1433;49.976;8.342;2022-11-20T13:48:03;25.60;;;21.10;;
2850;SDS011;1433;49.976;8.342;2022-11-20T13:50:48;27.93;;;24.40;;
2850;SDS011;1433;49.976;8.342;2022-11-20T13:53:46;28.77;;;20.97;;
2850;SDS011;1433;49.976;8.342;2022-11-20T13:56:40;25.90;;;23.17;;
2850;SDS011;1433;49.976;8.342;2022-11-20T14:02:40;30.83;;;22.57;;
2850;SDS011;1433;49.976;8.342;2022-11-20T14:05:11;21.83;;;19.40;;
2850;SDS011;1433;49.976;8.342;2022-11-20T14:07:45;24.27;;;20.63;;
2850;SDS011;1433;49.976;8.342;2022-11-20T14:10:20;22.00;;;19.70;;
2850;SDS011;1433;49.976;8.342;2022-11-20T14:12:51;21.83;;;19.53;;
2850;SDS011;1433;49.976;8.342;2022-11-20T14:15:28;22.47;;;20.07;;
2850;SDS011;1433;49.976;8.342;2022-11-20T14:17:57;23.87;;;20.57;;
2850;SDS011;1433;49.976;8.342;2022-11-20T14:20:27;23.10;;;20.70;;
2850;SDS011;1433;49.976;8.342;2022-11-20T14:22:55;20.80;;;18.50;;
2850;SDS011;1433;49.976;8.342;2022-11-20T14:25:22;26.90;;;22.53;;
2850;SDS011;1433;49.976;8.342;2022-11-20T14:30:27;39.30;;;32.40;;
2850;SDS011;1433;49.976;8.342;2022-11-20T14:33:01;24.63;;;22.03;;
2850;SDS011;1433;49.976;8.342;2022-11-20T14:35:30;22.70;;;20.30;;
2850;SDS011;1433;49.976;8.342;2022-11-20T14:38:03;27.00;;;22.23;;
2850;SDS011;1433;49.976;8.342;2022-11-20T14:40:30;24.37;;;21.80;;
2850;SDS011;1433;49.976;8.342;2022-11-20T14:43:01;24.23;;;21.63;;
2850;SDS011;1433;49.976;8.342;2022-11-20T14:45:45;24.27;;;21.53;;
2850;SDS011;1433;49.976;8.342;2022-11-20T14:48:31;25.70;;;21.40;;
2850;SDS011;1433;49.976;8.342;2022-11-20T14:51:12;24.10;;;21.70;;
2850;SDS011;1433;49.976;8.342;2022-11-20T14:53:51;28.70;;;22.70;;
2850;SDS011;1433;49.976;8.342;2022-11-20T14:56:23;26.07;;;23.20;;
2850;SDS011;1433;49.976;8.342;2022-11-20T14:58:56;27.30;;;22.90;;
2850;SDS011;1433;49.976;8.342;2022-11-20T15:01:27;25.70;;;22.20;;
2850;SDS011;1433;49.976;8.342;2022-11-20T15:04:05;24.37;;;21.77;;
2850;SDS011;1433;49.976;8.342;2022-11-20T15:06:37;27.03;;;23.70;;
2850;SDS011;1433;49.976;8.342;2022-11-20T15:09:04;30.33;;;25.57;;
2850;SDS011;1433;49.976;8.342;2022-11-20T15:11:34;28.87;;;25.73;;
2850;SDS011;1433;49.976;8.342;2022-11-20T15:14:02;27.13;;;24.17;;
2850;SDS011;1433;49.976;8.342;2022-11-20T15:16:31;26.37;;;23.30;;
2850;SDS011;1433;49.976;8.342;2022-11-20T15:18:58;33.87;;;25.77;;
2850;SDS011;1433;49.976;8.342;2022-11-20T15:21:25;31.27;;;24.93;;
2850;SDS011;1433;49.976;8.342;2022-11-20T15:23:52;30.60;;;26.93;;
2850;SDS011;1433;49.976;8.342;2022-11-20T15:26:25;27.97;;;24.67;;
2850;SDS011;1433;49.976;8.342;2022-11-20T15:28:52;29.73;;;26.40;;
2850;SDS011;1433;49.976;8.342;2022-11-20T15:31:21;29.67;;;26.50;;
2850;SDS011;1433;49.976;8.342;2022-11-20T15:33:49;31.47;;;24.93;;
2850;SDS011;1433;49.976;8.342;2022-11-20T15:36:16;29.20;;;25.70;;
2850;SDS011;1433;49.976;8.342;2022-11-20T15:38:42;27.73;;;23.70;;
2850;SDS011;1433;49.976;8.342;2022-11-20T15:41:09;27.73;;;22.93;;
2850;SDS011;1433;49.976;8.342;2022-11-20T15:43:36;26.20;;;22.30;;
2850;SDS011;1433;49.976;8.342;2022-11-20T15:46:09;31.60;;;25.80;;
2850;SDS011;1433;49.976;8.342;2022-11-20T15:53:57;25.37;;;22.83;;
2850;SDS011;1433;49.976;8.342;2022-11-20T15:56:24;28.50;;;24.47;;
2850;SDS011;1433;49.976;8.342;2022-11-20T15:58:50;27.93;;;23.93;;
2850;SDS011;1433;49.976;8.342;2022-11-20T16:01:18;35.57;;;28.10;;
2850;SDS011;1433;49.976;8.342;2022-11-20T16:03:47;32.47;;;24.67;;
2850;SDS011;1433;49.976;8.342;2022-11-20T16:06:14;41.93;;;30.53;;
2850;SDS011;1433;49.976;8.342;2022-11-20T16:08:41;32.33;;;26.83;;
2850;SDS011;1433;49.976;8.342;2022-11-20T16:11:10;34.17;;;26.80;;
2850;SDS011;1433;49.976;8.342;2022-11-20T16:13:38;34.27;;;27.60;;
2850;SDS011;1433;49.976;8.342;2022-11-20T16:16:33;32.73;;;25.33;;
2850;SDS011;1433;49.976;8.342;2022-11-20T16:19:00;32.00;;;26.87;;
2850;SDS011;1433;49.976;8.342;2022-11-20T16:21:27;30.13;;;26.53;;
2850;SDS011;1433;49.976;8.342;2022-11-20T16:23:59;33.80;;;28.10;;
2850;SDS011;1433;49.976;8.342;2022-11-20T16:26:31;34.90;;;28.53;;
2850;SDS011;1433;49.976;8.342;2022-11-20T16:28:58;30.83;;;25.53;;
2850;SDS011;1433;49.976;8.342;2022-11-20T16:31:26;36.33;;;30.30;;
2850;SDS011;1433;49.976;8.342;2022-11-20T16:33:52;38.37;;;28.20;;
2850;SDS011;1433;49.976;8.342;2022-11-20T16:36:21;36.33;;;28.77;;
2850;SDS011;1433;49.976;8.342;2022-11-20T16:38:54;6.70;;;6.03;;
2850;SDS011;1433;49.976;8.342;2022-11-20T16:41:19;1.40;;;1.30;;
2850;SDS011;1433;49.976;8.342;2022-11-20T16:46:17;1.40;;;1.30;;
2850;SDS011;1433;49.976;8.342;2022-11-20T16:48:55;1.10;;;1.00;;
2850;SDS011;1433;49.976;8.342;2022-11-20T16:51:23;1.00;;;0.90;;
2850;SDS011;1433;49.976;8.342;2022-11-20T16:53:51;1.10;;;1.00;;
2850;SDS011;1433;49.976;8.342;2022-11-20T16:56:20;0.90;;;0.80;;
2850;SDS011;1433;49.976;8.342;2022-11-20T16:58:49;0.90;;;0.80;;
2850;SDS011;1433;49.976;8.342;2022-11-20T17:01:17;1.00;;;0.90;;
2850;SDS011;1433;49.976;8.342;2022-11-20T17:03:59;0.90;;;0.80;;